createdAt,value
2023-05-05T00:01:34.991Z,65.07
2023-05-05T00:04:01.866Z,65.57
2023-05-05T00:06:28.752Z,65.12
2023-05-05T00:08:56.149Z,64.61
2023-05-05T00:11:22.805Z,64.65
2023-05-05T00:13:49.401Z,64.24
2023-05-05T00:16:16.018Z,65.44
2023-05-05T00:18:42.590Z,65.20
2023-05-05T00:21:09.151Z,65.46
2023-05-05T00:23:35.764Z,65.91
2023-05-05T00:26:02.418Z,65.32
2023-05-05T00:28:29.945Z,66.18
2023-05-05T00:30:57.527Z,65.41
2023-05-05T00:33:24.214Z,66.12
2023-05-05T00:35:51.542Z,66.53
2023-05-05T00:38:18.121Z,65.79
2023-05-05T00:40:44.702Z,66.40
2023-05-05T00:43:12.945Z,67.56
2023-05-05T00:45:42.749Z,66.53
2023-05-05T00:48:09.620Z,66.48
2023-05-05T00:50:36.576Z,66.39
2023-05-05T00:53:05.027Z,66.38
2023-05-05T00:55:32.608Z,66.34
2023-05-05T00:58:00.346Z,66.57
2023-05-05T01:00:27.649Z,67.66
2023-05-05T01:02:55.529Z,66.88
2023-05-05T01:05:24.680Z,67.16
2023-05-05T01:08:26.906Z,66.59
2023-05-05T01:11:00.568Z,67.16
2023-05-05T01:13:39.419Z,68.36
2023-05-05T01:16:18.108Z,67.48
2023-05-05T01:19:00.162Z,67.45
2023-05-05T01:21:36.000Z,67.82
2023-05-05T01:24:28.598Z,69.10
2023-05-05T01:27:19.222Z,67.72
2023-05-05T01:30:22.191Z,68.13
2023-05-05T01:32:55.230Z,67.88
2023-05-05T01:35:36.218Z,67.94
2023-05-05T01:38:11.881Z,67.96
2023-05-05T01:40:45.280Z,69.07
2023-05-05T01:43:15.170Z,68.22
2023-05-05T01:45:45.537Z,67.74
2023-05-05T01:48:15.257Z,68.37
2023-05-05T01:50:43.732Z,69.58
2023-05-05T01:53:11.633Z,69.29
2023-05-05T01:55:39.603Z,68.72
2023-05-05T01:58:07.684Z,68.17
2023-05-05T02:00:34.645Z,68.97
2023-05-05T02:03:04.577Z,68.82
2023-05-05T02:05:32.988Z,69.06
2023-05-05T02:08:00.939Z,69.23
2023-05-05T02:10:28.566Z,69.33
2023-05-05T02:12:56.682Z,68.84
2023-05-05T02:15:24.184Z,68.53
2023-05-05T02:17:54.712Z,69.04
2023-05-05T02:20:23.841Z,69.18
2023-05-05T02:22:50.496Z,69.87
2023-05-05T02:25:19.854Z,69.12
2023-05-05T02:27:48.477Z,68.70
2023-05-05T02:30:19.826Z,68.62
2023-05-05T02:32:55.216Z,68.54
2023-05-05T02:35:32.249Z,68.37
2023-05-05T02:38:05.519Z,68.41
2023-05-05T02:40:38.542Z,68.93
2023-05-05T02:43:09.709Z,69.33
2023-05-05T02:45:36.435Z,68.99
2023-05-05T02:48:06.877Z,68.71
2023-05-05T02:50:38.060Z,68.09
2023-05-05T02:53:26.887Z,67.68
2023-05-05T02:56:05.579Z,69.52
2023-05-05T02:58:51.722Z,69.28
2023-05-05T03:01:57.213Z,68.66
2023-05-05T03:04:31.938Z,68.58
2023-05-05T03:07:00.217Z,68.54
2023-05-05T03:10:03.185Z,68.65
2023-05-05T03:12:45.992Z,69.73
2023-05-05T03:15:22.327Z,69.62
2023-05-05T03:17:51.478Z,69.60
2023-05-05T03:20:18.991Z,68.47
2023-05-05T03:22:48.388Z,68.26
2023-05-05T03:25:15.804Z,68.81
2023-05-05T03:27:42.561Z,68.70
2023-05-05T03:30:12.469Z,69.18
2023-05-05T03:32:46.296Z,69.50
2023-05-05T03:35:13.981Z,69.90
2023-05-05T03:37:40.735Z,70.06
2023-05-05T03:40:08.176Z,69.70
2023-05-05T03:42:34.926Z,69.52
2023-05-05T03:45:01.528Z,70.32
2023-05-05T03:47:28.695Z,70.13
2023-05-05T03:49:56.465Z,70.50
2023-05-05T03:52:23.117Z,70.66
2023-05-05T03:54:49.750Z,70.45
2023-05-05T03:57:16.708Z,70.14
2023-05-05T03:59:43.392Z,70.84
2023-05-05T04:02:09.988Z,70.91
2023-05-05T04:04:36.674Z,70.53
2023-05-05T04:07:03.528Z,69.90
2023-05-05T04:09:30.072Z,70.40
2023-05-05T04:11:57.003Z,70.65
2023-05-05T04:14:23.834Z,70.05
2023-05-05T04:16:51.941Z,69.40
2023-05-05T04:19:19.375Z,68.72
2023-05-05T04:21:46.610Z,68.83
2023-05-05T04:24:13.647Z,69.10
2023-05-05T04:26:40.536Z,69.90
2023-05-05T04:29:07.290Z,69.56
2023-05-05T04:31:34.057Z,69.18
2023-05-05T04:34:00.935Z,68.62
2023-05-05T04:36:27.573Z,69.87
2023-05-05T04:38:54.583Z,69.32
2023-05-05T04:41:21.474Z,69.09
2023-05-05T04:43:48.770Z,68.51
2023-05-05T04:46:15.739Z,68.49
2023-05-05T04:48:42.679Z,68.93
2023-05-05T04:51:09.500Z,69.56
2023-05-05T04:53:37.180Z,69.51
2023-05-05T04:56:03.877Z,68.44
2023-05-05T04:58:32.800Z,68.52
2023-05-05T05:00:59.454Z,67.90
2023-05-05T05:03:26.284Z,67.47
2023-05-05T05:05:53.549Z,68.35
2023-05-05T05:08:20.268Z,68.45
2023-05-05T05:10:47.354Z,68.68
2023-05-05T05:13:13.991Z,68.54
2023-05-05T05:15:42.332Z,68.35
2023-05-05T05:18:08.935Z,67.58
2023-05-05T05:20:35.546Z,67.64
2023-05-05T05:23:02.403Z,68.58
2023-05-05T05:25:30.757Z,68.88
2023-05-05T05:28:08.919Z,69.16
2023-05-05T05:30:38.845Z,68.56
2023-05-05T05:33:07.113Z,69.19
2023-05-05T05:35:34.352Z,68.87
2023-05-05T05:38:01.481Z,68.89
2023-05-05T05:40:28.417Z,69.05
2023-05-05T05:42:55.420Z,70.02
2023-05-05T05:45:23.704Z,70.30
2023-05-05T05:47:51.136Z,71.00
2023-05-05T05:50:18.901Z,70.98
2023-05-05T05:52:45.700Z,71.50
2023-05-05T05:55:12.301Z,72.07
2023-05-05T05:57:40.608Z,71.74
2023-05-05T06:00:09.832Z,73.63
2023-05-05T06:02:40.986Z,73.42
2023-05-05T06:05:12.671Z,74.24
2023-05-05T06:07:39.821Z,73.04
2023-05-05T06:10:22.967Z,72.99
2023-05-05T06:12:55.062Z,73.51
2023-05-05T06:15:22.155Z,74.09
2023-05-05T06:17:50.375Z,75.44
2023-05-05T06:20:17.115Z,74.96
2023-05-05T06:22:43.723Z,73.94
2023-05-05T06:25:11.208Z,74.06
2023-05-05T06:27:38.282Z,76.10
2023-05-05T06:30:06.773Z,76.54
2023-05-05T06:32:33.572Z,75.52
2023-05-05T06:35:00.196Z,75.11
2023-05-05T06:37:26.893Z,76.35
2023-05-05T06:39:53.536Z,76.18
2023-05-05T06:42:20.078Z,75.06
2023-05-05T06:44:46.646Z,74.36
2023-05-05T06:47:13.214Z,74.72
2023-05-05T06:49:42.626Z,75.45
2023-05-05T06:52:09.205Z,76.51
2023-05-05T06:54:35.805Z,76.23
2023-05-05T06:57:02.379Z,75.77
2023-05-05T06:59:28.999Z,75.39
2023-05-05T07:01:56.591Z,74.92
2023-05-05T07:04:23.234Z,75.77
2023-05-05T07:06:49.830Z,75.20
2023-05-05T07:09:17.495Z,74.67
2023-05-05T07:11:44.243Z,74.20
2023-05-05T07:14:10.802Z,74.59
2023-05-05T07:16:37.528Z,73.58
2023-05-05T07:19:07.030Z,72.94
2023-05-05T07:21:34.182Z,72.91
2023-05-05T07:24:01.871Z,71.11
2023-05-05T07:26:28.490Z,71.44
2023-05-05T07:28:58.722Z,70.91
2023-05-05T07:31:26.564Z,68.69
2023-05-05T07:33:53.623Z,68.53
2023-05-05T07:36:20.414Z,68.18
2023-05-05T07:38:46.947Z,68.12
2023-05-05T07:41:13.513Z,68.03
2023-05-05T07:43:44.057Z,67.47
2023-05-05T07:46:11.317Z,65.25
2023-05-05T07:48:39.104Z,63.15
2023-05-05T07:51:05.687Z,64.09
2023-05-05T07:53:32.437Z,64.87
2023-05-05T07:55:59.063Z,62.80
2023-05-05T07:58:25.701Z,61.62
2023-05-05T08:00:52.269Z,62.55
2023-05-05T08:03:21.588Z,63.60
2023-05-05T08:05:50.557Z,62.62
2023-05-05T08:08:18.292Z,61.00
2023-05-05T08:10:44.826Z,62.30
2023-05-05T08:13:11.672Z,61.10
2023-05-05T08:15:38.248Z,59.02
2023-05-05T08:18:04.907Z,58.65
2023-05-05T08:20:31.607Z,56.96
2023-05-05T08:22:58.236Z,58.71
2023-05-05T08:25:26.837Z,59.56
2023-05-05T08:27:53.667Z,59.82
2023-05-05T08:30:22.194Z,60.07
2023-05-05T08:32:48.800Z,59.99
2023-05-05T08:35:15.383Z,59.95
2023-05-05T08:37:41.974Z,60.31
2023-05-05T08:40:12.181Z,60.38
2023-05-05T08:42:39.594Z,61.28
2023-05-05T08:45:08.541Z,60.39
2023-05-05T08:47:36.816Z,59.76
2023-05-05T08:50:05.685Z,61.53
2023-05-05T08:52:40.328Z,61.55
2023-05-05T08:55:18.000Z,61.65
2023-05-05T08:58:01.035Z,61.82
2023-05-05T09:00:28.027Z,63.25
2023-05-05T09:02:56.935Z,64.28
2023-05-05T09:05:24.338Z,63.72
2023-05-05T09:07:51.327Z,64.37
2023-05-05T09:10:18.683Z,65.31
2023-05-05T09:12:45.340Z,66.42
2023-05-05T09:15:14.652Z,65.86
2023-05-05T09:17:42.187Z,66.01
2023-05-05T09:20:10.859Z,68.20
2023-05-05T09:22:39.694Z,67.16
2023-05-05T09:25:08.726Z,64.97
2023-05-05T09:27:41.012Z,63.36
2023-05-05T09:30:09.528Z,62.14
2023-05-05T09:32:49.021Z,59.90
2023-05-05T09:35:16.711Z,60.39
2023-05-05T09:37:43.577Z,57.34
2023-05-05T09:40:12.799Z,58.42
2023-05-05T09:42:40.523Z,56.21
2023-05-05T09:45:27.955Z,57.10
2023-05-05T09:47:59.099Z,58.35
2023-05-05T09:50:30.018Z,58.14
2023-05-05T09:53:03.622Z,56.86
2023-05-05T09:55:33.267Z,57.01
2023-05-05T09:58:23.668Z,55.35
2023-05-05T10:00:50.982Z,54.89
2023-05-05T10:03:18.112Z,53.78
2023-05-05T10:05:52.722Z,54.49
2023-05-05T10:08:21.151Z,52.48
2023-05-05T10:10:51.840Z,53.47
2023-05-05T10:13:20.685Z,52.83
2023-05-05T10:15:52.344Z,53.18
2023-05-05T10:18:23.568Z,52.37
2023-05-05T10:21:02.256Z,51.81
2023-05-05T10:23:34.595Z,52.27
2023-05-05T10:26:03.772Z,49.18
2023-05-05T10:28:34.137Z,48.67
2023-05-05T10:31:04.259Z,50.24
2023-05-05T10:34:03.361Z,49.15
2023-05-05T10:36:31.670Z,49.42
2023-05-05T10:38:59.848Z,49.64
2023-05-05T10:41:26.984Z,51.42
2023-05-05T10:43:58.608Z,50.95
2023-05-05T10:46:27.369Z,50.01
2023-05-05T10:51:48.107Z,49.81
2023-05-05T10:54:28.128Z,48.42
2023-05-05T10:56:55.623Z,48.47
2023-05-05T10:59:37.491Z,47.16
2023-05-05T11:02:26.797Z,48.51
2023-05-05T11:05:14.902Z,50.43
2023-05-05T11:07:42.552Z,50.74
2023-05-05T11:10:11.412Z,51.67
2023-05-05T11:13:10.109Z,52.98
2023-05-05T11:15:38.039Z,53.55
2023-05-05T11:18:07.968Z,53.42
2023-05-05T11:20:39.594Z,53.31
2023-05-05T11:23:06.314Z,53.15
2023-05-05T11:25:42.121Z,53.45
2023-05-05T11:28:09.941Z,52.92
2023-05-05T11:30:57.256Z,53.77
2023-05-05T11:33:38.436Z,53.97
2023-05-05T11:36:14.621Z,54.07
2023-05-05T11:38:55.716Z,54.57
2023-05-05T11:41:34.044Z,54.60
2023-05-05T11:44:15.275Z,53.29
2023-05-05T11:47:04.806Z,52.05
2023-05-05T11:49:38.782Z,49.48
2023-05-05T11:52:10.437Z,50.00
2023-05-05T11:54:40.487Z,51.43
2023-05-05T11:57:08.529Z,51.57
2023-05-05T11:59:37.326Z,50.97
2023-05-05T12:02:04.509Z,50.25
2023-05-05T12:04:31.636Z,49.56
2023-05-05T12:06:59.396Z,51.75
2023-05-05T12:09:27.114Z,51.76
2023-05-05T12:11:58.723Z,52.53
2023-05-05T12:14:26.089Z,51.20
2023-05-05T12:17:04.309Z,50.66
2023-05-05T12:19:33.405Z,50.92
2023-05-05T12:22:04.543Z,50.78
2023-05-05T12:24:31.307Z,48.96
2023-05-05T12:27:08.163Z,47.87
2023-05-05T12:29:34.808Z,49.09
2023-05-05T12:32:01.495Z,48.52
2023-05-05T12:34:28.313Z,48.41
2023-05-05T12:36:55.294Z,49.02
2023-05-05T12:39:22.383Z,49.23
2023-05-05T12:41:49.552Z,49.86
2023-05-05T12:44:16.137Z,50.28
2023-05-05T12:46:49.265Z,51.33
2023-05-05T12:49:17.057Z,52.72
2023-05-05T12:51:54.878Z,52.86
2023-05-05T12:54:23.816Z,51.09
2023-05-05T12:56:50.630Z,47.94
2023-05-05T12:59:24.165Z,47.53
2023-05-05T13:01:55.189Z,48.70
2023-05-05T13:04:24.022Z,48.16
2023-05-05T13:07:08.754Z,47.56
2023-05-05T13:09:35.534Z,48.67
2023-05-05T13:12:03.144Z,49.71
2023-05-05T13:14:32.931Z,50.42
2023-05-05T13:16:59.769Z,50.38
2023-05-05T13:19:27.630Z,51.69
2023-05-05T13:21:55.670Z,52.75
2023-05-05T13:24:34.497Z,53.48
2023-05-05T13:27:05.652Z,54.01
2023-05-05T13:29:33.218Z,54.77
2023-05-05T13:32:00.879Z,55.74
2023-05-05T13:34:27.614Z,55.52
2023-05-05T13:36:54.284Z,55.81
2023-05-05T13:39:20.971Z,54.84
2023-05-05T13:41:47.717Z,53.48
2023-05-05T13:44:14.386Z,49.38
2023-05-05T13:46:42.466Z,46.91
2023-05-05T13:49:09.051Z,46.71
2023-05-05T13:51:36.005Z,47.25
2023-05-05T13:54:02.997Z,47.46
2023-05-05T13:56:29.942Z,47.17
2023-05-05T13:58:56.549Z,46.77
2023-05-05T14:01:23.368Z,47.86
2023-05-05T14:03:50.346Z,48.09
2023-05-05T14:06:17.140Z,49.01
2023-05-05T14:08:43.807Z,48.97
2023-05-05T14:11:10.682Z,49.01
2023-05-05T14:13:37.237Z,50.21
2023-05-05T14:16:04.262Z,50.90
2023-05-05T14:18:30.933Z,49.64
2023-05-05T14:20:57.589Z,50.86
2023-05-05T14:23:24.185Z,51.79
2023-05-05T14:25:50.970Z,53.20
2023-05-05T14:28:17.580Z,54.34
2023-05-05T14:30:44.196Z,54.40
2023-05-05T14:33:10.738Z,55.22
2023-05-05T14:35:37.375Z,55.57
2023-05-05T14:38:04.056Z,56.05
2023-05-05T14:40:31.334Z,57.73
2023-05-05T14:42:58.005Z,56.66
2023-05-05T14:45:24.658Z,58.16
2023-05-05T14:47:51.447Z,59.05
2023-05-05T14:50:18.044Z,58.30
2023-05-05T14:52:44.760Z,57.97
2023-05-05T14:55:11.960Z,60.00
2023-05-05T14:57:39.019Z,59.76
2023-05-05T15:00:09.456Z,62.69
2023-05-05T15:02:37.377Z,64.63
2023-05-05T15:05:05.353Z,66.98
2023-05-05T15:07:32.160Z,69.56
2023-05-05T15:09:58.880Z,73.71
2023-05-05T15:12:26.056Z,74.03
2023-05-05T15:14:52.801Z,74.69
2023-05-05T15:17:19.517Z,76.22
2023-05-05T15:19:46.110Z,76.06
2023-05-05T15:22:12.660Z,76.81
2023-05-05T15:24:39.244Z,77.49
2023-05-05T15:27:05.896Z,77.36
2023-05-05T15:29:32.507Z,78.59
2023-05-05T15:31:59.196Z,77.75
2023-05-05T15:34:26.224Z,78.40
2023-05-05T15:36:52.772Z,78.40
2023-05-05T15:39:20.535Z,79.19
2023-05-05T15:41:47.106Z,78.45
2023-05-05T15:44:41.778Z,78.65
2023-05-05T15:47:10.777Z,77.76
2023-05-05T15:49:37.669Z,78.47
2023-05-05T15:52:04.596Z,77.37
2023-05-05T15:54:31.194Z,76.82
2023-05-05T15:56:57.948Z,77.87
2023-05-05T15:59:24.537Z,79.53
2023-05-05T16:01:51.167Z,77.86
2023-05-05T16:04:17.830Z,78.65
2023-05-05T16:06:44.391Z,78.56
2023-05-05T16:09:10.965Z,78.01
2023-05-05T16:11:37.634Z,77.57
2023-05-05T16:14:04.345Z,78.28
2023-05-05T16:16:31.188Z,77.24
2023-05-05T16:18:57.725Z,78.01
2023-05-05T16:21:24.378Z,76.76
2023-05-05T16:23:51.304Z,75.70
2023-05-05T16:26:17.906Z,74.94
2023-05-05T16:28:44.501Z,74.91
2023-05-05T16:31:11.263Z,74.89
2023-05-05T16:33:43.015Z,73.54
2023-05-05T16:36:13.137Z,74.60
2023-05-05T16:38:40.199Z,75.35
2023-05-05T16:41:07.261Z,74.80
2023-05-05T16:43:34.005Z,74.73
2023-05-05T16:46:00.691Z,74.79
2023-05-05T16:48:27.297Z,75.13
2023-05-05T16:50:56.066Z,73.88
2023-05-05T16:53:22.655Z,75.10
2023-05-05T16:55:53.219Z,76.51
2023-05-05T16:58:25.382Z,76.42
2023-05-05T17:00:52.627Z,74.11
2023-05-05T17:03:20.388Z,73.30
2023-05-05T17:05:50.152Z,73.82
2023-05-05T17:08:17.454Z,75.08
2023-05-05T17:10:45.554Z,76.10
2023-05-05T17:13:13.983Z,76.72
2023-05-05T17:15:41.482Z,78.87
2023-05-05T17:18:08.661Z,77.05
2023-05-05T17:20:36.354Z,76.55
2023-05-05T17:23:03.704Z,76.88
2023-05-05T17:25:31.103Z,77.66
2023-05-05T17:27:58.013Z,78.10
2023-05-05T17:30:24.954Z,78.36
2023-05-05T17:32:51.904Z,79.20
2023-05-05T17:35:18.780Z,78.88
2023-05-05T17:37:45.579Z,78.94
2023-05-05T17:40:12.411Z,79.45
2023-05-05T17:42:39.052Z,79.45
2023-05-05T17:45:06.479Z,79.54
2023-05-05T17:47:33.284Z,79.29
2023-05-05T17:49:59.879Z,79.83
2023-05-05T17:52:27.187Z,79.68
2023-05-05T17:54:53.776Z,79.52
2023-05-05T17:57:23.684Z,80.15
2023-05-05T17:59:51.963Z,79.94
2023-05-05T18:02:19.544Z,81.26
2023-05-05T18:04:46.558Z,79.70
2023-05-05T18:07:14.739Z,80.10
2023-05-05T18:09:41.915Z,79.75
2023-05-05T18:12:08.572Z,79.97
2023-05-05T18:14:35.747Z,79.78
2023-05-05T18:17:02.557Z,79.96
2023-05-05T18:19:29.240Z,79.95
2023-05-05T18:21:55.778Z,81.11
2023-05-05T18:24:22.506Z,80.20
2023-05-05T18:26:54.557Z,80.08
2023-05-05T18:29:22.009Z,79.99
2023-05-05T18:31:51.445Z,80.50
2023-05-05T18:34:19.084Z,80.76
2023-05-05T18:36:46.424Z,80.80
2023-05-05T18:39:14.050Z,80.61
2023-05-05T18:41:40.972Z,80.75
2023-05-05T18:44:10.666Z,81.07
2023-05-05T18:46:37.487Z,81.47
2023-05-05T18:49:07.390Z,81.78
2023-05-05T18:51:35.125Z,81.67
2023-05-05T18:54:01.722Z,81.33
2023-05-05T18:56:28.265Z,81.02
2023-05-05T18:58:54.978Z,81.95
2023-05-05T19:01:22.062Z,81.70
2023-05-05T19:03:49.597Z,81.92
2023-05-05T19:06:17.535Z,81.85
2023-05-05T19:08:45.594Z,81.54
2023-05-05T19:11:14.539Z,81.56
2023-05-05T19:13:41.522Z,81.52
2023-05-05T19:16:10.830Z,81.23
2023-05-05T19:18:37.622Z,82.37
2023-05-05T19:21:04.466Z,83.04
2023-05-05T19:23:31.776Z,81.62
2023-05-05T19:25:58.301Z,81.99
2023-05-05T19:28:24.887Z,81.83
2023-05-05T19:30:52.127Z,81.77
2023-05-05T19:33:20.894Z,82.20
2023-05-05T19:35:47.449Z,81.87
2023-05-05T19:38:14.329Z,81.80
2023-05-05T19:40:44.029Z,81.68
2023-05-05T19:43:10.687Z,82.09
2023-05-05T19:45:37.519Z,81.07
2023-05-05T19:48:07.298Z,81.04
2023-05-05T19:50:33.834Z,80.94
2023-05-05T19:53:03.568Z,81.62
2023-05-05T19:55:30.332Z,81.51
2023-05-05T19:57:57.476Z,81.26
2023-05-05T20:00:24.233Z,81.24
2023-05-05T20:02:51.019Z,81.52
2023-05-05T20:05:18.073Z,82.11
2023-05-05T20:07:46.333Z,81.92
2023-05-05T20:10:16.640Z,81.48
2023-05-05T20:12:47.923Z,81.14
2023-05-05T20:15:19.254Z,81.41
2023-05-05T20:17:46.990Z,81.58
2023-05-05T20:20:19.891Z,82.91
2023-05-05T20:22:47.208Z,82.26
2023-05-05T20:25:19.630Z,81.68
2023-05-05T20:27:46.464Z,81.46
2023-05-05T20:30:15.463Z,81.57
2023-05-05T20:32:42.008Z,82.17
2023-05-05T20:35:09.280Z,83.35
2023-05-05T20:37:35.870Z,83.18
2023-05-05T20:40:02.478Z,82.40
2023-05-05T20:42:29.695Z,81.50
2023-05-05T20:44:56.680Z,82.29
2023-05-05T20:47:24.094Z,81.85
2023-05-05T20:49:54.684Z,81.50
2023-05-05T20:52:21.444Z,81.35
2023-05-05T20:54:48.129Z,81.64
2023-05-05T20:57:14.847Z,81.68
2023-05-05T20:59:41.434Z,82.39
2023-05-05T21:02:08.454Z,82.98
2023-05-05T21:04:35.236Z,83.45
2023-05-05T21:07:01.907Z,82.34
2023-05-05T21:09:28.907Z,82.05
2023-05-05T21:11:55.510Z,81.61
2023-05-05T21:14:22.136Z,82.01
2023-05-05T21:16:48.785Z,81.82
2023-05-05T21:19:16.434Z,82.73
2023-05-05T21:21:43.046Z,83.24
2023-05-05T21:24:09.689Z,82.87
2023-05-05T21:26:36.278Z,82.21
2023-05-05T21:29:02.904Z,81.24
2023-05-05T21:31:29.504Z,81.63
2023-05-05T21:33:56.078Z,81.30
2023-05-05T21:36:22.631Z,81.63
2023-05-05T21:38:49.494Z,82.11
2023-05-05T21:41:16.744Z,81.53
2023-05-05T21:43:43.299Z,82.22
2023-05-05T21:46:10.298Z,82.52
2023-05-05T21:48:38.864Z,82.32
2023-05-05T21:51:06.694Z,82.80
2023-05-05T21:53:33.390Z,82.96
2023-05-05T21:55:59.913Z,82.24
2023-05-05T21:58:26.554Z,82.69
2023-05-05T22:00:53.144Z,81.92
2023-05-05T22:03:19.764Z,81.46
2023-05-05T22:05:46.386Z,81.05
2023-05-05T22:08:13.013Z,81.56
2023-05-05T22:10:39.605Z,83.29
2023-05-05T22:13:06.188Z,83.64
2023-05-05T22:15:42.675Z,83.38
2023-05-05T22:18:13.007Z,82.83
2023-05-05T22:20:40.568Z,83.04
2023-05-05T22:23:07.292Z,82.69
2023-05-05T22:25:33.855Z,82.47
2023-05-05T22:28:00.520Z,82.65
2023-05-05T22:30:27.054Z,81.99
2023-05-05T22:32:53.665Z,81.83
2023-05-05T22:35:20.239Z,82.14
2023-05-05T22:37:46.774Z,82.02
2023-05-05T22:40:13.517Z,82.08
2023-05-05T22:42:40.624Z,81.96
2023-05-05T22:45:08.608Z,81.93
2023-05-05T22:47:35.414Z,82.73
2023-05-05T22:50:02.020Z,83.43
2023-05-05T22:52:29.013Z,83.64
2023-05-05T22:54:56.064Z,84.14
2023-05-05T22:57:22.636Z,83.75
2023-05-05T22:59:50.027Z,82.57
2023-05-05T23:02:16.586Z,82.05
2023-05-05T23:04:44.603Z,82.92
2023-05-05T23:07:12.635Z,82.64
2023-05-05T23:09:39.492Z,82.17
2023-05-05T23:12:06.257Z,82.16
2023-05-05T23:14:32.884Z,82.47
2023-05-05T23:16:59.706Z,82.24
2023-05-05T23:19:26.482Z,82.18
2023-05-05T23:21:53.847Z,81.27
2023-05-05T23:24:21.500Z,81.44
2023-05-05T23:26:48.041Z,81.79
2023-05-05T23:29:14.603Z,81.49
2023-05-05T23:31:41.475Z,81.79
2023-05-05T23:34:08.535Z,82.95
2023-05-05T23:36:35.512Z,82.61
2023-05-05T23:39:02.105Z,82.78
2023-05-05T23:41:28.720Z,82.91
2023-05-05T23:43:56.009Z,82.38
2023-05-05T23:46:22.863Z,82.90
2023-05-05T23:48:50.416Z,83.86
2023-05-05T23:51:17.559Z,83.41
2023-05-05T23:53:44.091Z,82.87
2023-05-05T23:56:10.808Z,83.32
2023-05-05T23:58:37.451Z,82.42
